CheckWX is a tool to help pilots better visualize weather data.  It is not intended as a substitute for an official pre-flight weather briefing.

07:28:01 UTC

CYFC METAR
Fredericton Airport
Fredericton, Canada
Current

28 mins ago

CYFC 210700Z AUTO VRB03KT 9SM OVC150 04/03 A3008 RMK PRESFR SLP188
Observed
Oct-21 @ 07:00 UTC
Wind
  • Variable at 3 KTS
Visibility
9 SM
Flight Rules
VFR
Cloud Levels
  • Overcast at 15,000' AGL
Temperature
C / 39°F
Dewpoint
C / 37°F
Humidity
93%
Altimeter
30.08" Hg
Pressure
1018.62 hPa
Previous

1 hour ago

CYFC 210600Z AUTO 22007KT 9SM BKN130 OVC150 04/04 A3009 RMK SLP191
Observed
Oct-21 @ 06:00 UTC
Wind
  • 220° at 7 KTS
Visibility
9 SM
Flight Rules
VFR
Cloud Levels
  • Broken at 13,000' AGL
  • Overcast at 15,000' AGL
Temperature
C / 39°F
Dewpoint
C / 39°F
Humidity
100%
Altimeter
30.09" Hg
Pressure
1018.92 hPa
Previous

2 hours ago

CYFC 210500Z AUTO 14002KT 9SM BKN150 OVC170 04/03 A3007 RMK SLP186
Observed
Oct-21 @ 05:00 UTC
Wind
  • 140° at 2 KTS
Visibility
9 SM
Flight Rules
VFR
Cloud Levels
  • Broken at 15,000' AGL
  • Overcast at 17,000' AGL
Temperature
C / 39°F
Dewpoint
C / 37°F
Humidity
93%
Altimeter
30.07" Hg
Pressure
1018.32 hPa